PWSweather.com
Personal Weather Stations
Station Observations
IMAZOWIE6
WarszawaPL

WarszawaPL

Lat: 52.27957, Lon: 21.05489

Elevation: 100

Station Type: WS1080

http://stacjapogody.waw.pl/

High Low Average
Temperature 1801.2°F982.9°C 71.6°F22.0°C 104.3°F40.2°C
Dew Point 7.3°F-13.7°C -165.6°F-109.8°C -162.4°F-108.0°C
Winds 563.2 mph 906.4 kmh Calm Calm 6.0 mph N9.7 kmh N
Wind Gusts 52.4 mph84.3 kmh -- 1.0 mph1.6 kmh
Humidity 0% 0% 0%
Pressure 29.34 in993.6 mb 0.00 in0.0 mb -
Precipitation 0.00 in0.0 mm - -
Hour Temp Dew Point Humidity Winds Wind Gusts Pressure Precip Precip Rate Daily Precip Total
12:34 AM 74.8°F23.8°C -165.3°F-109.6°C - Calm Calm -- 28.98 in981.4 mb 0.00 in0.0 mm 0.00 in0.0 mm 0.00 in0.0 mm
01:02 AM 74.1°F23.4°C -165.4°F-109.7°C - Calm Calm -- 28.99 in981.7 mb 0.00 in0.0 mm 0.00 in0.0 mm 0.00 in0.0 mm
02:00 AM 1801.2°F982.9°C 7.3°F-13.7°C 0% 563.2 mph N906.4 kmh N 52.4 mph84.3 kmh 0.00 in0.0 mb 0.00 in0.0 mm 0.00 in0.0 mm 0.00 in0.0 mm
02:16 AM 72.7°F22.6°C -165.5°F-109.7°C - Calm Calm -- 29.03 in983.1 mb 0.00 in0.0 mm 0.00 in0.0 mm 0.00 in0.0 mm
02:31 AM 72.3°F22.4°C -165.6°F-109.8°C - Calm Calm -- 29.05 in983.7 mb 0.00 in0.0 mm 0.00 in0.0 mm 0.00 in0.0 mm
02:46 AM 72.0°F22.2°C -165.6°F-109.8°C - Calm Calm -- 29.05 in983.7 mb 0.00 in0.0 mm 0.00 in0.0 mm 0.00 in0.0 mm
03:01 AM 71.6°F22.0°C -165.6°F-109.8°C - Calm Calm 0.6 mph1.0 kmh 29.06 in984.1 mb 0.00 in0.0 mm 0.00 in0.0 mm 0.00 in0.0 mm
03:16 AM 71.6°F22.0°C -165.6°F-109.8°C - Calm Calm -- 29.07 in984.4 mb 0.00 in0.0 mm 0.00 in0.0 mm 0.00 in0.0 mm
03:31 AM 71.6°F22.0°C -165.6°F-109.8°C - Calm Calm -- 29.08 in984.8 mb 0.00 in0.0 mm 0.00 in0.0 mm 0.00 in0.0 mm
03:46 AM 72.3°F22.4°C -165.6°F-109.8°C - Calm Calm -- 29.09 in985.1 mb 0.00 in0.0 mm 0.00 in0.0 mm 0.00 in0.0 mm
04:01 AM 72.5°F22.5°C -165.6°F-109.8°C - Calm Calm -- 29.09 in985.1 mb 0.00 in0.0 mm 0.00 in0.0 mm 0.00 in0.0 mm
04:16 AM 73.2°F22.9°C -165.5°F-109.7°C - Calm Calm -- 29.09 in985.1 mb 0.00 in0.0 mm 0.00 in0.0 mm 0.00 in0.0 mm
04:31 AM 74.5°F23.6°C -165.4°F-109.7°C - Calm Calm -- 29.09 in985.1 mb 0.00 in0.0 mm 0.00 in0.0 mm 0.00 in0.0 mm
04:46 AM 75.6°F24.2°C -165.2°F-109.6°C - Calm Calm -- 29.09 in985.1 mb 0.00 in0.0 mm 0.00 in0.0 mm 0.00 in0.0 mm
05:01 AM 76.5°F24.7°C -165.2°F-109.6°C - Calm Calm -- 29.09 in985.1 mb 0.00 in0.0 mm 0.00 in0.0 mm 0.00 in0.0 mm
05:16 AM 77.9°F25.5°C -165.0°F-109.4°C - Calm Calm 0.6 mph1.0 kmh 29.08 in984.8 mb 0.00 in0.0 mm 0.00 in0.0 mm 0.00 in0.0 mm
05:31 AM 78.6°F25.9°C -164.9°F-109.4°C - Calm Calm -- 29.08 in984.8 mb 0.00 in0.0 mm 0.00 in0.0 mm 0.00 in0.0 mm
05:46 AM 80.1°F26.7°C -164.8°F-109.3°C - Calm Calm -- 29.07 in984.4 mb 0.00 in0.0 mm 0.00 in0.0 mm 0.00 in0.0 mm
06:01 AM 80.1°F26.7°C -164.8°F-109.3°C - Calm Calm 0.6 mph1.0 kmh 29.06 in984.1 mb 0.00 in0.0 mm 0.00 in0.0 mm 0.00 in0.0 mm
06:16 AM 81.5°F27.5°C -164.7°F-109.3°C - Calm Calm -- 29.06 in984.1 mb 0.00 in0.0 mm 0.00 in0.0 mm 0.00 in0.0 mm
06:31 AM 82.2°F27.9°C -164.6°F-109.2°C - Calm Calm 0.6 mph1.0 kmh 29.05 in983.7 mb 0.00 in0.0 mm 0.00 in0.0 mm 0.00 in0.0 mm
06:46 AM 84.0°F28.9°C -164.4°F-109.1°C - Calm Calm 0.6 mph1.0 kmh 29.04 in983.4 mb 0.00 in0.0 mm 0.00 in0.0 mm 0.00 in0.0 mm
07:01 AM 85.1°F29.5°C -164.3°F-109.1°C - Calm Calm -- 29.03 in983.1 mb 0.00 in0.0 mm 0.00 in0.0 mm 0.00 in0.0 mm
07:16 AM 86.7°F30.4°C -164.1°F-108.9°C - Calm Calm -- 29.02 in982.7 mb 0.00 in0.0 mm 0.00 in0.0 mm 0.00 in0.0 mm
07:31 AM 91.2°F32.9°C -163.7°F-108.7°C - Calm Calm -- 29.00 in982.1 mb 0.00 in0.0 mm 0.00 in0.0 mm 0.00 in0.0 mm
07:46 AM 88.3°F31.3°C -164.0°F-108.9°C - Calm Calm -- 28.96 in980.7 mb 0.00 in0.0 mm 0.00 in0.0 mm 0.00 in0.0 mm
08:01 AM 88.7°F31.5°C -163.9°F-108.8°C - Calm Calm -- 28.91 in979.0 mb 0.00 in0.0 mm 0.00 in0.0 mm 0.00 in0.0 mm
08:16 AM 93.0°F33.9°C -163.5°F-108.6°C - Calm Calm -- 28.86 in977.3 mb 0.00 in0.0 mm 0.00 in0.0 mm 0.00 in0.0 mm
08:31 AM 97.0°F36.1°C -163.1°F-108.4°C - Calm Calm -- 28.82 in976.0 mb 0.00 in0.0 mm 0.00 in0.0 mm 0.00 in0.0 mm
08:46 AM 95.9°F35.5°C -163.2°F-108.4°C - Calm Calm -- 28.79 in974.9 mb 0.00 in0.0 mm 0.00 in0.0 mm 0.00 in0.0 mm
09:01 AM 94.3°F34.6°C -163.4°F-108.6°C - Calm Calm -- 28.76 in973.9 mb 0.00 in0.0 mm 0.00 in0.0 mm 0.00 in0.0 mm
09:16 AM 90.7°F32.6°C -163.7°F-108.7°C - Calm Calm -- 28.73 in972.9 mb 0.00 in0.0 mm 0.00 in0.0 mm 0.00 in0.0 mm
09:31 AM 88.5°F31.4°C -163.9°F-108.8°C - Calm Calm -- 28.69 in971.6 mb 0.00 in0.0 mm 0.00 in0.0 mm 0.00 in0.0 mm
09:46 AM 91.2°F32.9°C -163.7°F-108.7°C - Calm Calm -- 28.66 in970.5 mb 0.00 in0.0 mm 0.00 in0.0 mm 0.00 in0.0 mm
10:01 AM 91.2°F32.9°C -163.7°F-108.7°C - Calm Calm -- 28.62 in969.2 mb 0.00 in0.0 mm 0.00 in0.0 mm 0.00 in0.0 mm
10:16 AM 92.5°F33.6°C -163.6°F-108.7°C - Calm Calm -- 28.59 in968.2 mb 0.00 in0.0 mm 0.00 in0.0 mm 0.00 in0.0 mm
10:31 AM 93.6°F34.2°C -163.4°F-108.6°C - Calm Calm -- 28.57 in967.5 mb 0.00 in0.0 mm 0.00 in0.0 mm 0.00 in0.0 mm
10:46 AM 91.8°F33.2°C -163.6°F-108.7°C - Calm Calm -- 28.55 in966.8 mb 0.00 in0.0 mm 0.00 in0.0 mm 0.00 in0.0 mm
11:01 AM 91.8°F33.2°C -163.6°F-108.7°C - Calm Calm -- 28.55 in966.8 mb 0.00 in0.0 mm 0.00 in0.0 mm 0.00 in0.0 mm
11:16 AM 89.8°F32.1°C -163.8°F-108.8°C - Calm Calm -- 28.51 in965.5 mb 0.00 in0.0 mm 0.00 in0.0 mm 0.00 in0.0 mm
11:31 AM 87.8°F31.0°C -164.0°F-108.9°C - Calm Calm -- 28.48 in964.4 mb 0.00 in0.0 mm 0.00 in0.0 mm 0.00 in0.0 mm
11:46 AM 90.0°F32.2°C -163.8°F-108.8°C - Calm Calm -- 28.44 in963.1 mb 0.00 in0.0 mm 0.00 in0.0 mm 0.00 in0.0 mm
12:01 PM 88.7°F31.5°C -163.9°F-108.8°C - Calm Calm -- 28.41 in962.1 mb 0.00 in0.0 mm 0.00 in0.0 mm 0.00 in0.0 mm
12:16 PM 89.8°F32.1°C -163.8°F-108.8°C - Calm Calm -- 28.39 in961.4 mb 0.00 in0.0 mm 0.00 in0.0 mm 0.00 in0.0 mm
12:31 PM 89.4°F31.9°C -163.9°F-108.8°C - Calm Calm -- 28.38 in961.1 mb 0.00 in0.0 mm 0.00 in0.0 mm 0.00 in0.0 mm
12:46 PM 89.1°F31.7°C -163.9°F-108.8°C - Calm Calm 0.6 mph1.0 kmh 28.36 in960.4 mb 0.00 in0.0 mm 0.00 in0.0 mm 0.00 in0.0 mm
01:01 PM 89.6°F32.0°C -163.8°F-108.8°C - Calm Calm -- 28.36 in960.4 mb 0.00 in0.0 mm 0.00 in0.0 mm 0.00 in0.0 mm
01:16 PM 91.0°F32.8°C -163.7°F-108.7°C - Calm Calm -- 28.38 in961.1 mb 0.00 in0.0 mm 0.00 in0.0 mm 0.00 in0.0 mm
01:31 PM 90.9°F32.7°C -163.7°F-108.7°C - Calm Calm -- 28.39 in961.4 mb 0.00 in0.0 mm 0.00 in0.0 mm 0.00 in0.0 mm
01:46 PM 90.9°F32.7°C -163.7°F-108.7°C - Calm Calm -- 28.41 in962.1 mb 0.00 in0.0 mm 0.00 in0.0 mm 0.00 in0.0 mm
02:01 PM 90.1°F32.3°C -163.8°F-108.8°C - Calm Calm -- 28.41 in962.1 mb 0.00 in0.0 mm 0.00 in0.0 mm 0.00 in0.0 mm
02:16 PM 90.1°F32.3°C -163.8°F-108.8°C - Calm Calm -- 28.41 in962.1 mb 0.00 in0.0 mm 0.00 in0.0 mm 0.00 in0.0 mm
02:31 PM 89.8°F32.1°C -163.8°F-108.8°C - Calm Calm -- 28.43 in962.8 mb 0.00 in0.0 mm 0.00 in0.0 mm 0.00 in0.0 mm
02:46 PM 90.3°F32.4°C -163.8°F-108.8°C - Calm Calm -- 28.44 in963.1 mb 0.00 in0.0 mm 0.00 in0.0 mm 0.00 in0.0 mm
03:01 PM 91.0°F32.8°C -163.7°F-108.7°C - Calm Calm -- 28.45 in963.4 mb 0.00 in0.0 mm 0.00 in0.0 mm 0.00 in0.0 mm
03:16 PM 90.7°F32.6°C -163.7°F-108.7°C - Calm Calm -- 28.45 in963.4 mb 0.00 in0.0 mm 0.00 in0.0 mm 0.00 in0.0 mm
03:31 PM 90.0°F32.2°C -163.8°F-108.8°C - Calm Calm -- 28.45 in963.4 mb 0.00 in0.0 mm 0.00 in0.0 mm 0.00 in0.0 mm
03:46 PM 90.5°F32.5°C -163.8°F-108.8°C - Calm Calm -- 28.46 in963.8 mb 0.00 in0.0 mm 0.00 in0.0 mm 0.00 in0.0 mm
04:01 PM 90.9°F32.7°C -163.7°F-108.7°C - Calm Calm -- 28.46 in963.8 mb 0.00 in0.0 mm 0.00 in0.0 mm 0.00 in0.0 mm
04:16 PM 91.0°F32.8°C -163.7°F-108.7°C - Calm Calm -- 28.45 in963.4 mb 0.00 in0.0 mm 0.00 in0.0 mm 0.00 in0.0 mm
04:31 PM 90.3°F32.4°C -163.8°F-108.8°C - Calm Calm -- 28.44 in963.1 mb 0.00 in0.0 mm 0.00 in0.0 mm 0.00 in0.0 mm
04:46 PM 90.3°F32.4°C -163.8°F-108.8°C - Calm Calm -- 28.44 in963.1 mb 0.00 in0.0 mm 0.00 in0.0 mm 0.00 in0.0 mm
05:01 PM 89.8°F32.1°C -163.8°F-108.8°C - Calm Calm -- 28.43 in962.8 mb 0.00 in0.0 mm 0.00 in0.0 mm 0.00 in0.0 mm
05:16 PM 88.7°F31.5°C -163.9°F-108.8°C - Calm Calm -- 28.41 in962.1 mb 0.00 in0.0 mm 0.00 in0.0 mm 0.00 in0.0 mm
05:31 PM 88.9°F31.6°C -163.9°F-108.8°C - Calm Calm -- 28.40 in961.7 mb 0.00 in0.0 mm 0.00 in0.0 mm 0.00 in0.0 mm
05:46 PM 89.1°F31.7°C -163.9°F-108.8°C - Calm Calm -- 28.39 in961.4 mb 0.00 in0.0 mm 0.00 in0.0 mm 0.00 in0.0 mm
06:01 PM 89.1°F31.7°C -163.9°F-108.8°C - Calm Calm -- 28.39 in961.4 mb 0.00 in0.0 mm 0.00 in0.0 mm 0.00 in0.0 mm
06:16 PM 89.1°F31.7°C -163.9°F-108.8°C - Calm Calm -- 28.38 in961.1 mb 0.00 in0.0 mm 0.00 in0.0 mm 0.00 in0.0 mm
06:31 PM 88.7°F31.5°C -163.9°F-108.8°C - Calm Calm 0.6 mph1.0 kmh 28.38 in961.1 mb 0.00 in0.0 mm 0.00 in0.0 mm 0.00 in0.0 mm
06:46 PM 88.5°F31.4°C -163.9°F-108.8°C - Calm Calm 0.6 mph1.0 kmh 28.37 in960.7 mb 0.00 in0.0 mm 0.00 in0.0 mm 0.00 in0.0 mm
07:01 PM 88.2°F31.2°C -164.0°F-108.9°C - Calm Calm -- 28.38 in961.1 mb 0.00 in0.0 mm 0.00 in0.0 mm 0.00 in0.0 mm
07:16 PM 87.1°F30.6°C -164.1°F-108.9°C - Calm Calm -- 28.38 in961.1 mb 0.00 in0.0 mm 0.00 in0.0 mm 0.00 in0.0 mm
07:31 PM 86.5°F30.3°C -164.1°F-108.9°C - Calm Calm 0.6 mph1.0 kmh 28.36 in960.4 mb 0.00 in0.0 mm 0.00 in0.0 mm 0.00 in0.0 mm
07:46 PM 86.0°F30.0°C -164.2°F-109.0°C - Calm Calm -- 28.34 in959.7 mb 0.00 in0.0 mm 0.00 in0.0 mm 0.00 in0.0 mm
08:20 PM 84.4°F29.1°C -164.4°F-109.1°C - Calm Calm -- 29.08 in984.8 mb 0.00 in0.0 mm 0.00 in0.0 mm 0.00 in0.0 mm
08:35 PM 83.8°F28.8°C -164.4°F-109.1°C - Calm Calm -- 29.10 in985.4 mb 0.00 in0.0 mm 0.00 in0.0 mm 0.00 in0.0 mm
08:50 PM 83.1°F28.4°C -164.5°F-109.2°C - Calm Calm -- 29.10 in985.4 mb 0.00 in0.0 mm 0.00 in0.0 mm 0.00 in0.0 mm
09:05 PM 82.6°F28.1°C -164.5°F-109.2°C - Calm Calm -- 29.08 in984.8 mb 0.00 in0.0 mm 0.00 in0.0 mm 0.00 in0.0 mm
09:20 PM 82.2°F27.9°C -164.6°F-109.2°C - Calm Calm -- 29.07 in984.4 mb 0.00 in0.0 mm 0.00 in0.0 mm 0.00 in0.0 mm
09:35 PM 81.3°F27.4°C -164.7°F-109.3°C - Calm Calm -- 29.06 in984.1 mb 0.00 in0.0 mm 0.00 in0.0 mm 0.00 in0.0 mm
09:50 PM 81.0°F27.2°C -164.7°F-109.3°C - Calm Calm -- 29.06 in984.1 mb 0.00 in0.0 mm 0.00 in0.0 mm 0.00 in0.0 mm
10:05 PM 80.2°F26.8°C -164.8°F-109.3°C - Calm Calm -- 29.06 in984.1 mb 0.00 in0.0 mm 0.00 in0.0 mm 0.00 in0.0 mm
10:20 PM 80.1°F26.7°C -164.8°F-109.3°C - Calm Calm -- 29.06 in984.1 mb 0.00 in0.0 mm 0.00 in0.0 mm 0.00 in0.0 mm
10:35 PM 79.2°F26.2°C -164.9°F-109.4°C - Calm Calm -- 29.07 in984.4 mb 0.00 in0.0 mm 0.00 in0.0 mm 0.00 in0.0 mm
10:50 PM 78.6°F25.9°C -164.9°F-109.4°C - Calm Calm -- 29.13 in986.5 mb 0.00 in0.0 mm 0.00 in0.0 mm 0.00 in0.0 mm
11:05 PM 77.9°F25.5°C -165.0°F-109.4°C - Calm Calm -- 29.20 in988.8 mb 0.00 in0.0 mm 0.00 in0.0 mm 0.00 in0.0 mm
11:20 PM 77.2°F25.1°C -165.1°F-109.5°C - Calm Calm 0.6 mph1.0 kmh 29.26 in990.9 mb 0.00 in0.0 mm 0.00 in0.0 mm 0.00 in0.0 mm
11:35 PM 77.2°F25.1°C -165.1°F-109.5°C - Calm Calm -- 29.31 in992.6 mb 0.00 in0.0 mm 0.00 in0.0 mm 0.00 in0.0 mm
11:50 PM 76.3°F24.6°C -165.2°F-109.6°C - Calm Calm -- 29.34 in993.6 mb 0.00 in0.0 mm 0.00 in0.0 mm 0.00 in0.0 mm